createdAt,value
2019-04-16T00:00:02.315Z,135.00
2019-04-16T00:01:02.278Z,135.00
2019-04-16T00:02:02.333Z,135.00
2019-04-16T00:03:02.293Z,135.00
2019-04-16T00:04:02.306Z,135.00
2019-04-16T00:05:02.321Z,135.00
2019-04-16T00:06:02.304Z,135.00
2019-04-16T00:07:02.313Z,135.00
2019-04-16T00:08:02.318Z,135.00
2019-04-16T00:09:02.317Z,135.00
2019-04-16T00:10:02.305Z,135.00
2019-04-16T00:11:02.351Z,135.00
2019-04-16T00:12:02.304Z,135.00
2019-04-16T00:13:02.323Z,135.00
2019-04-16T00:14:03.486Z,135.00
2019-04-16T00:15:02.313Z,135.00
2019-04-16T00:16:02.322Z,135.00
2019-04-16T00:17:02.343Z,135.00
2019-04-16T00:18:02.337Z,135.00
2019-04-16T00:19:05.653Z,135.00
2019-04-16T00:20:05.663Z,135.00
2019-04-16T00:21:02.525Z,180.06
2019-04-16T00:22:02.340Z,309.21
2019-04-16T00:23:02.349Z,315.00
2019-04-16T00:24:02.314Z,315.00
2019-04-16T00:25:02.344Z,315.00
2019-04-16T00:26:02.303Z,315.00
2019-04-16T00:27:02.313Z,315.00
2019-04-16T00:28:02.317Z,315.00
2019-04-16T00:29:03.180Z,315.00
2019-04-16T00:30:04.862Z,315.00
2019-04-16T00:31:04.694Z,315.00
2019-04-16T00:32:02.350Z,315.00
2019-04-16T00:33:02.315Z,315.00
2019-04-16T00:34:02.328Z,315.00
2019-04-16T00:35:02.357Z,315.00
2019-04-16T00:36:02.345Z,315.00
2019-04-16T00:37:02.314Z,315.00
2019-04-16T00:38:02.369Z,315.00
2019-04-16T00:39:02.328Z,315.00
2019-04-16T00:40:02.332Z,315.00
2019-04-16T00:41:02.387Z,315.00
2019-04-16T00:42:02.339Z,315.00
2019-04-16T00:43:02.337Z,315.00
2019-04-16T00:44:02.332Z,315.00
2019-04-16T00:45:02.321Z,315.00
2019-04-16T00:46:02.322Z,315.00
2019-04-16T00:47:02.395Z,315.00
2019-04-16T00:48:02.334Z,315.00
2019-04-16T00:49:02.343Z,315.00
2019-04-16T00:50:02.340Z,315.00
2019-04-16T00:51:02.337Z,37.92
2019-04-16T00:52:05.898Z,45.00
2019-04-16T00:53:02.339Z,45.00
2019-04-16T00:54:02.332Z,45.00
2019-04-16T00:55:02.343Z,45.00
2019-04-16T00:56:02.338Z,45.00
2019-04-16T00:57:02.433Z,45.00
2019-04-16T00:58:02.349Z,45.00
2019-04-16T00:59:02.368Z,45.00
2019-04-16T01:00:02.337Z,45.00
2019-04-16T01:01:02.389Z,45.00
2019-04-16T01:02:02.496Z,45.00
2019-04-16T01:03:02.318Z,45.00
2019-04-16T01:04:03.064Z,45.00
2019-04-16T01:05:02.358Z,45.00
2019-04-16T01:06:07.034Z,45.00
2019-04-16T01:07:02.498Z,45.00
2019-04-16T01:08:02.321Z,45.00
2019-04-16T01:09:02.333Z,45.00
2019-04-16T01:10:02.343Z,45.00
2019-04-16T01:11:02.365Z,45.00
2019-04-16T01:12:02.337Z,45.00
2019-04-16T01:13:02.342Z,45.00
2019-04-16T01:14:02.351Z,45.00
2019-04-16T01:15:02.329Z,45.00
2019-04-16T01:16:03.746Z,42.51
2019-04-16T01:17:05.095Z,292.41
2019-04-16T01:18:04.618Z,270.00
2019-04-16T01:19:02.353Z,270.00
2019-04-16T01:20:02.349Z,270.00
2019-04-16T01:21:02.423Z,270.00
2019-04-16T01:22:02.372Z,270.00
2019-04-16T01:23:02.371Z,270.00
2019-04-16T01:24:02.351Z,270.00
2019-04-16T01:25:02.369Z,270.00
2019-04-16T01:26:02.362Z,270.00
2019-04-16T01:27:02.352Z,270.00
2019-04-16T01:28:02.355Z,270.00
2019-04-16T01:29:03.720Z,280.22
2019-04-16T01:30:04.888Z,315.00
2019-04-16T01:31:06.918Z,315.00
2019-04-16T01:32:02.432Z,315.00
2019-04-16T01:33:02.352Z,315.00
2019-04-16T01:34:02.372Z,315.00
2019-04-16T01:35:02.393Z,315.00
2019-04-16T01:36:02.367Z,299.96
2019-04-16T01:37:02.369Z,270.00
2019-04-16T01:38:02.369Z,309.86
2019-04-16T01:39:16.264Z,315.00
2019-04-16T01:40:02.361Z,315.00
2019-04-16T01:41:02.402Z,315.00
2019-04-16T01:42:02.366Z,315.00
2019-04-16T01:43:02.357Z,315.00
2019-04-16T01:44:02.405Z,315.00
2019-04-16T01:45:02.373Z,315.00
2019-04-16T01:46:02.811Z,315.00
2019-04-16T01:47:04.277Z,315.00
2019-04-16T01:48:06.679Z,315.00
2019-04-16T01:49:02.365Z,315.00
2019-04-16T01:50:02.413Z,315.00
2019-04-16T01:51:02.353Z,315.00
2019-04-16T01:52:02.377Z,315.00
2019-04-16T01:53:02.458Z,315.00
2019-04-16T01:54:02.596Z,315.00
2019-04-16T01:55:02.608Z,288.45
2019-04-16T01:56:02.601Z,276.07
2019-04-16T01:57:02.381Z,270.00
2019-04-16T01:58:03.641Z,272.85
2019-04-16T01:59:05.462Z,283.42
2019-04-16T02:00:06.747Z,293.23
2019-04-16T02:01:02.395Z,291.56
2019-04-16T02:02:02.379Z,270.00
2019-04-16T02:03:02.382Z,270.00
2019-04-16T02:04:02.389Z,270.00
2019-04-16T02:05:02.410Z,270.00
2019-04-16T02:06:02.398Z,270.00
2019-04-16T02:07:02.377Z,270.00
2019-04-16T02:08:02.393Z,270.00
2019-04-16T02:09:03.251Z,270.00
2019-04-16T02:10:06.448Z,270.00
2019-04-16T02:11:02.417Z,270.00
2019-04-16T02:12:02.380Z,270.00
2019-04-16T02:13:02.641Z,270.00
2019-04-16T02:14:02.622Z,270.00
2019-04-16T02:15:02.625Z,270.00
2019-04-16T02:16:02.404Z,270.00
2019-04-16T02:17:02.393Z,270.00
2019-04-16T02:18:02.404Z,270.00
2019-04-16T02:19:02.688Z,280.42
2019-04-16T02:20:06.202Z,280.87
2019-04-16T02:21:02.382Z,302.08
2019-04-16T02:22:02.386Z,295.54
2019-04-16T02:23:02.405Z,290.93
2019-04-16T02:24:02.399Z,298.84
2019-04-16T02:25:02.378Z,275.37
2019-04-16T02:26:02.439Z,270.00
2019-04-16T02:27:02.388Z,270.00
2019-04-16T02:28:02.410Z,270.00
2019-04-16T02:29:02.402Z,270.00
2019-04-16T02:30:04.653Z,270.00
2019-04-16T02:31:02.584Z,270.00
2019-04-16T02:32:02.403Z,271.92
2019-04-16T02:33:02.516Z,279.21
2019-04-16T02:34:02.630Z,270.00
2019-04-16T02:35:02.715Z,278.65
2019-04-16T02:36:02.659Z,294.80
2019-04-16T02:37:03.211Z,270.00
2019-04-16T02:38:02.708Z,270.00
2019-04-16T02:39:02.388Z,270.00
2019-04-16T02:40:02.542Z,270.00
2019-04-16T02:41:02.427Z,270.00
2019-04-16T02:42:02.779Z,270.00
2019-04-16T02:43:06.503Z,270.00
2019-04-16T02:44:02.789Z,310.73
2019-04-16T02:45:02.413Z,276.37
2019-04-16T02:46:02.413Z,260.07
2019-04-16T02:47:06.196Z,266.10
2019-04-16T02:48:02.422Z,223.12
2019-04-16T02:49:02.415Z,180.00
2019-04-16T02:50:02.429Z,180.00
2019-04-16T02:51:07.335Z,224.82
2019-04-16T02:52:02.425Z,225.00
2019-04-16T02:53:02.459Z,225.00
2019-04-16T02:54:02.438Z,225.00
2019-04-16T02:55:08.140Z,225.00
2019-04-16T02:56:02.448Z,269.10
2019-04-16T02:57:02.575Z,270.00
2019-04-16T02:58:02.557Z,270.00
2019-04-16T02:59:09.791Z,313.60
2019-04-16T03:00:02.431Z,289.83
2019-04-16T03:01:02.447Z,270.24
2019-04-16T03:02:02.459Z,300.25
2019-04-16T03:03:02.414Z,275.16
2019-04-16T03:04:02.417Z,272.33
2019-04-16T03:05:02.439Z,265.93
2019-04-16T03:06:02.427Z,274.27
2019-04-16T03:07:03.334Z,270.85
2019-04-16T03:08:04.608Z,273.57
2019-04-16T03:09:02.417Z,288.33
2019-04-16T03:10:02.821Z,244.65
2019-04-16T03:11:02.448Z,268.90
2019-04-16T03:12:02.442Z,270.03
2019-04-16T03:13:02.417Z,282.01
2019-04-16T03:14:02.422Z,257.58
2019-04-16T03:15:02.820Z,274.96
2019-04-16T03:16:05.689Z,225.00
2019-04-16T03:17:02.436Z,225.00
2019-04-16T03:18:02.566Z,225.00
2019-04-16T03:19:02.453Z,240.09
2019-04-16T03:20:02.423Z,315.00
2019-04-16T03:21:02.497Z,315.00
2019-04-16T03:22:03.303Z,315.00
2019-04-16T03:23:05.645Z,315.00
2019-04-16T03:24:02.708Z,315.00
2019-04-16T03:25:02.585Z,315.00
2019-04-16T03:26:02.703Z,315.00
2019-04-16T03:27:04.602Z,315.00
2019-04-16T03:28:02.625Z,315.00
2019-04-16T03:29:02.435Z,85.43
2019-04-16T03:30:03.459Z,90.00
2019-04-16T03:31:07.480Z,133.81
2019-04-16T03:32:02.424Z,135.00
2019-04-16T03:33:10.282Z,135.00
2019-04-16T03:34:02.487Z,135.00
2019-04-16T03:35:02.448Z,135.00
2019-04-16T03:36:02.477Z,135.00
2019-04-16T03:37:03.037Z,135.00
2019-04-16T03:38:05.067Z,135.00
2019-04-16T03:39:02.439Z,135.00
2019-04-16T03:40:15.108Z,135.00
2019-04-16T03:41:02.472Z,95.99
2019-04-16T03:42:02.459Z,90.00
2019-04-16T03:43:04.138Z,90.00
2019-04-16T03:44:04.212Z,90.00
2019-04-16T03:45:02.457Z,90.00
2019-04-16T03:46:02.430Z,90.00
2019-04-16T03:47:02.477Z,90.00
2019-04-16T03:48:02.448Z,90.00
2019-04-16T03:49:02.443Z,90.00
2019-04-16T03:50:02.458Z,90.00
2019-04-16T03:51:03.509Z,130.05
2019-04-16T03:52:04.823Z,180.00
2019-04-16T03:53:02.511Z,180.00
2019-04-16T03:54:04.900Z,180.00
2019-04-16T03:55:02.430Z,180.00
2019-04-16T03:56:02.470Z,180.00
2019-04-16T03:57:02.867Z,180.00
2019-04-16T03:58:05.178Z,180.00
2019-04-16T03:59:02.445Z,180.00
2019-04-16T04:00:02.691Z,180.00
2019-04-16T04:01:02.462Z,180.00
2019-04-16T04:02:02.447Z,180.00
2019-04-16T04:03:02.445Z,180.00
2019-04-16T04:04:02.463Z,180.00
2019-04-16T04:05:06.389Z,180.00
2019-04-16T04:06:03.508Z,180.00
2019-04-16T04:07:02.450Z,180.00
2019-04-16T04:08:02.459Z,180.00
2019-04-16T04:09:02.456Z,180.00
2019-04-16T04:10:02.469Z,180.00
2019-04-16T04:11:02.464Z,180.00
2019-04-16T04:12:02.460Z,180.00
2019-04-16T04:13:04.883Z,274.74
2019-04-16T04:14:02.488Z,270.00
2019-04-16T04:15:02.449Z,286.95
2019-04-16T04:16:02.465Z,301.07
2019-04-16T04:17:05.459Z,274.78
2019-04-16T04:18:02.506Z,285.87
2019-04-16T04:19:02.464Z,270.77
2019-04-16T04:20:02.496Z,308.19
2019-04-16T04:21:02.474Z,306.84
2019-04-16T04:22:02.472Z,270.00
2019-04-16T04:23:02.518Z,270.00
2019-04-16T04:24:02.773Z,270.00
2019-04-16T04:25:04.269Z,278.09
2019-04-16T04:26:02.463Z,270.00
2019-04-16T04:27:02.462Z,287.05
2019-04-16T04:28:02.468Z,279.24
2019-04-16T04:29:05.949Z,299.71
2019-04-16T04:30:02.472Z,297.70
2019-04-16T04:31:02.485Z,282.60
2019-04-16T04:32:03.387Z,277.35
2019-04-16T04:33:07.449Z,270.00
2019-04-16T04:34:02.487Z,270.00
2019-04-16T04:35:02.470Z,270.00
2019-04-16T04:36:02.470Z,274.72
2019-04-16T04:37:02.486Z,189.77
2019-04-16T04:38:04.083Z,270.00
2019-04-16T04:39:02.466Z,270.00
2019-04-16T04:40:02.459Z,158.82
2019-04-16T04:41:02.506Z,135.00
2019-04-16T04:42:02.478Z,75.22
2019-04-16T04:43:02.450Z,135.00
2019-04-16T04:44:04.355Z,135.00
2019-04-16T04:45:02.461Z,135.00
2019-04-16T04:46:02.486Z,135.00
2019-04-16T04:47:02.517Z,135.00
2019-04-16T04:48:02.495Z,135.00
2019-04-16T04:49:02.502Z,135.00
2019-04-16T04:50:03.442Z,135.00
2019-04-16T04:51:06.892Z,252.17
2019-04-16T04:52:02.469Z,270.00
2019-04-16T04:53:02.519Z,270.00
2019-04-16T04:54:02.497Z,270.00
2019-04-16T04:55:02.486Z,270.00
2019-04-16T04:56:02.466Z,284.75
2019-04-16T04:57:02.479Z,315.00
2019-04-16T04:58:03.332Z,328.18
2019-04-16T04:59:05.137Z,90.00
2019-04-16T05:00:02.481Z,90.00
2019-04-16T05:01:02.478Z,90.00
2019-04-16T05:02:02.483Z,90.00
2019-04-16T05:03:02.467Z,90.00
2019-04-16T05:04:02.488Z,90.00
2019-04-16T05:05:02.502Z,90.00
2019-04-16T05:06:02.465Z,90.00
2019-04-16T05:07:04.695Z,90.00
2019-04-16T05:08:02.487Z,43.29
2019-04-16T05:09:02.487Z,271.20
2019-04-16T05:10:04.618Z,278.13
2019-04-16T05:11:02.979Z,279.05
2019-04-16T05:12:02.478Z,274.04
2019-04-16T05:13:02.503Z,270.83
2019-04-16T05:14:02.503Z,279.24
2019-04-16T05:15:04.011Z,277.34
2019-04-16T05:16:02.801Z,291.56
2019-04-16T05:17:03.633Z,292.23
2019-04-16T05:18:05.564Z,285.43
2019-04-16T05:19:02.517Z,271.54
2019-04-16T05:20:02.492Z,270.29
2019-04-16T05:21:02.491Z,270.00
2019-04-16T05:22:02.501Z,285.47
2019-04-16T05:23:02.513Z,270.00
2019-04-16T05:24:02.506Z,287.69
2019-04-16T05:25:02.769Z,282.06
2019-04-16T05:26:04.698Z,289.12
2019-04-16T05:27:02.503Z,289.37
2019-04-16T05:28:02.512Z,274.14
2019-04-16T05:29:02.507Z,266.32
2019-04-16T05:30:02.505Z,270.00
2019-04-16T05:31:02.515Z,274.33
2019-04-16T05:32:02.532Z,287.44
2019-04-16T05:33:05.430Z,253.31
2019-04-16T05:34:02.575Z,290.83
2019-04-16T05:35:02.533Z,246.99
2019-04-16T05:36:02.526Z,306.38
2019-04-16T05:37:02.498Z,72.18
2019-04-16T05:38:02.532Z,297.49
2019-04-16T05:39:03.767Z,307.39
2019-04-16T05:40:02.518Z,290.41
2019-04-16T05:41:13.150Z,274.21
2019-04-16T05:42:02.526Z,277.25
2019-04-16T05:43:02.513Z,274.74
2019-04-16T05:44:02.503Z,282.78
2019-04-16T05:45:05.313Z,279.88
2019-04-16T05:46:02.524Z,279.74
2019-04-16T05:47:02.539Z,265.10
2019-04-16T05:48:02.524Z,270.00
2019-04-16T05:49:02.522Z,270.00
2019-04-16T05:50:02.498Z,270.00
2019-04-16T05:51:02.511Z,282.27
2019-04-16T05:52:03.826Z,273.90
2019-04-16T05:53:02.513Z,272.61
2019-04-16T05:54:02.522Z,291.79
2019-04-16T05:55:02.527Z,279.26
2019-04-16T05:56:02.541Z,278.36
2019-04-16T05:57:02.501Z,266.83
2019-04-16T05:58:02.519Z,274.61
2019-04-16T05:59:03.256Z,307.59
2019-04-16T06:00:03.373Z,270.00
2019-04-16T06:01:02.564Z,270.00
2019-04-16T06:02:02.540Z,270.00
2019-04-16T06:03:02.525Z,271.85
2019-04-16T06:04:02.519Z,270.57
2019-04-16T06:05:02.530Z,270.00
2019-04-16T06:06:02.559Z,268.70
2019-04-16T06:07:03.697Z,273.34
2019-04-16T06:08:02.533Z,271.00
2019-04-16T06:09:02.510Z,270.00
2019-04-16T06:10:02.513Z,270.00
2019-04-16T06:11:02.546Z,293.89
2019-04-16T06:12:02.533Z,277.96
2019-04-16T06:13:02.528Z,239.11
2019-04-16T06:14:02.548Z,184.25
2019-04-16T06:15:02.515Z,109.61
2019-04-16T06:16:02.520Z,277.72
2019-04-16T06:17:02.535Z,269.89
2019-04-16T06:18:05.337Z,277.32
2019-04-16T06:19:02.520Z,149.84
2019-04-16T06:20:02.533Z,284.28
2019-04-16T06:21:02.539Z,266.22
2019-04-16T06:22:02.558Z,278.00
2019-04-16T06:23:02.594Z,270.00
2019-04-16T06:24:03.521Z,261.56
2019-04-16T06:25:08.436Z,240.76
2019-04-16T06:26:02.584Z,274.30
2019-04-16T06:27:02.510Z,270.00
2019-04-16T06:28:02.546Z,283.16
2019-04-16T06:29:02.564Z,289.88
2019-04-16T06:30:02.540Z,270.41
2019-04-16T06:31:05.291Z,270.00
2019-04-16T06:32:02.559Z,271.25
2019-04-16T06:33:02.528Z,268.45
2019-04-16T06:34:02.537Z,270.00
2019-04-16T06:35:02.581Z,273.53
2019-04-16T06:36:02.567Z,278.28
2019-04-16T06:37:02.531Z,255.45
2019-04-16T06:38:02.538Z,247.88
2019-04-16T06:39:02.522Z,300.43
2019-04-16T06:40:02.549Z,285.71
2019-04-16T06:41:03.329Z,286.94
2019-04-16T06:42:02.547Z,228.06
2019-04-16T06:43:02.860Z,221.80
2019-04-16T06:44:04.206Z,180.00
2019-04-16T06:45:04.952Z,180.00
2019-04-16T06:46:02.555Z,184.96
2019-04-16T06:47:02.574Z,301.71
2019-04-16T06:48:02.542Z,272.79
2019-04-16T06:49:02.537Z,285.68
2019-04-16T06:50:02.555Z,310.24
2019-04-16T06:51:02.551Z,274.29
2019-04-16T06:52:02.558Z,270.00
2019-04-16T06:53:02.596Z,305.49
2019-04-16T06:54:02.557Z,270.00
2019-04-16T06:55:03.575Z,270.00
2019-04-16T06:56:05.645Z,270.00
2019-04-16T06:57:02.541Z,40.18
2019-04-16T06:58:02.569Z,45.00
2019-04-16T06:59:02.587Z,26.41
2019-04-16T07:00:03.128Z,339.51
2019-04-16T07:01:05.888Z,315.00
2019-04-16T07:02:02.563Z,315.00
2019-04-16T07:03:03.029Z,303.90
2019-04-16T07:04:02.556Z,270.00
2019-04-16T07:05:02.575Z,236.81
2019-04-16T07:06:03.907Z,90.00
2019-04-16T07:07:07.842Z,90.00
2019-04-16T07:08:02.596Z,90.00
2019-04-16T07:09:02.540Z,90.00
2019-04-16T07:10:02.551Z,31.24
2019-04-16T07:11:02.576Z,149.30
2019-04-16T07:12:02.565Z,180.00
2019-04-16T07:13:02.548Z,161.87
2019-04-16T07:14:02.562Z,90.00
2019-04-16T07:15:02.546Z,90.00
2019-04-16T07:16:02.577Z,100.77
2019-04-16T07:17:02.605Z,90.00
2019-04-16T07:18:05.308Z,135.54
2019-04-16T07:19:02.566Z,198.75
2019-04-16T07:20:04.618Z,271.66
2019-04-16T07:21:02.555Z,288.43
2019-04-16T07:22:02.582Z,277.35
2019-04-16T07:23:02.569Z,273.70
2019-04-16T07:24:02.622Z,281.97
2019-04-16T07:25:04.490Z,283.16
2019-04-16T07:26:03.861Z,275.54
2019-04-16T07:27:02.564Z,286.03
2019-04-16T07:28:02.581Z,280.39
2019-04-16T07:29:02.609Z,278.52
2019-04-16T07:30:06.762Z,269.20
2019-04-16T07:31:02.859Z,313.85
2019-04-16T07:32:03.050Z,318.96
2019-04-16T07:33:02.587Z,327.87
2019-04-16T07:34:02.584Z,311.75
2019-04-16T07:35:02.587Z,269.74
2019-04-16T07:36:02.595Z,272.71
2019-04-16T07:37:02.591Z,270.00
2019-04-16T07:38:05.773Z,271.83
2019-04-16T07:39:05.363Z,270.00
2019-04-16T07:40:02.600Z,282.94
2019-04-16T07:41:02.620Z,268.69
2019-04-16T07:42:10.554Z,288.03
2019-04-16T07:43:02.580Z,312.03
2019-04-16T07:44:08.148Z,281.67
2019-04-16T07:45:02.589Z,294.48
2019-04-16T07:46:02.621Z,288.44
2019-04-16T07:47:02.593Z,252.85
2019-04-16T07:48:05.903Z,298.09
2019-04-16T07:49:02.589Z,282.51
2019-04-16T07:50:02.620Z,270.00
2019-04-16T07:51:04.850Z,270.00
2019-04-16T07:52:06.959Z,261.69
2019-04-16T07:53:02.639Z,252.34
2019-04-16T07:54:03.169Z,270.70
2019-04-16T07:55:02.614Z,266.08
2019-04-16T07:56:02.584Z,276.30
2019-04-16T07:57:02.594Z,277.00
2019-04-16T07:58:02.773Z,276.99
2019-04-16T07:59:02.695Z,275.12
2019-04-16T08:00:02.608Z,275.71
2019-04-16T08:01:02.603Z,288.63
2019-04-16T08:02:02.625Z,273.96
2019-04-16T08:03:02.699Z,290.76
2019-04-16T08:04:03.261Z,327.06
2019-04-16T08:05:07.754Z,319.29
2019-04-16T08:06:02.613Z,315.00
2019-04-16T08:07:02.598Z,289.00
2019-04-16T08:08:02.857Z,321.08
2019-04-16T08:09:02.587Z,268.40
2019-04-16T08:10:03.321Z,248.02
2019-04-16T08:11:02.644Z,235.21
2019-04-16T08:12:02.696Z,281.75
2019-04-16T08:13:02.612Z,238.13
2019-04-16T08:14:02.790Z,175.67
2019-04-16T08:15:13.371Z,55.92
2019-04-16T08:16:02.618Z,327.97
2019-04-16T08:17:02.641Z,338.02
2019-04-16T08:18:02.801Z,327.38
2019-04-16T08:19:02.620Z,328.71
2019-04-16T08:20:02.665Z,33.67
2019-04-16T08:21:10.120Z,84.11
2019-04-16T08:22:02.617Z,87.24
2019-04-16T08:23:02.638Z,319.46
2019-04-16T08:24:02.626Z,321.27
2019-04-16T08:25:03.917Z,284.02
2019-04-16T08:26:04.336Z,302.23
2019-04-16T08:27:02.611Z,296.32
2019-04-16T08:28:02.621Z,318.12
2019-04-16T08:29:02.646Z,317.68
2019-04-16T08:30:04.134Z,316.56
2019-04-16T08:31:02.617Z,66.68
2019-04-16T08:32:02.634Z,9.66
2019-04-16T08:33:02.628Z,332.14
2019-04-16T08:34:02.632Z,336.33
2019-04-16T08:35:02.678Z,315.99
2019-04-16T08:36:02.625Z,319.96
2019-04-16T08:37:02.633Z,327.75
2019-04-16T08:38:02.623Z,333.19
2019-04-16T08:39:05.911Z,293.12
2019-04-16T08:40:02.633Z,275.09
2019-04-16T08:41:02.916Z,257.01
2019-04-16T08:42:02.650Z,267.99
2019-04-16T08:43:02.667Z,295.53
2019-04-16T08:44:03.815Z,100.56
2019-04-16T08:45:07.604Z,134.60
2019-04-16T08:46:02.652Z,163.52
2019-04-16T08:47:03.036Z,109.77
2019-04-16T08:48:02.672Z,105.15
2019-04-16T08:49:02.645Z,287.74
2019-04-16T08:50:02.668Z,270.00
2019-04-16T08:51:04.747Z,99.48
2019-04-16T08:52:02.829Z,75.45
2019-04-16T08:53:02.699Z,290.23
2019-04-16T08:54:02.654Z,296.51
2019-04-16T08:55:02.658Z,305.32
2019-04-16T08:56:02.640Z,276.76
2019-04-16T08:57:02.763Z,280.17
2019-04-16T08:58:06.055Z,279.93
2019-04-16T08:59:02.701Z,277.37
2019-04-16T09:00:02.652Z,302.67
2019-04-16T09:01:02.743Z,258.53
2019-04-16T09:02:02.668Z,36.60
2019-04-16T09:03:02.642Z,273.23
2019-04-16T09:04:03.087Z,304.68
2019-04-16T09:05:05.979Z,311.84
2019-04-16T09:06:04.298Z,295.96
2019-04-16T09:07:11.123Z,289.20
2019-04-16T09:08:12.144Z,299.97
2019-04-16T09:09:12.720Z,303.23
2019-04-16T09:10:16.168Z,290.72
2019-04-16T09:11:03.346Z,272.32
2019-04-16T09:12:07.999Z,286.15
2019-04-16T09:13:04.609Z,288.84
2019-04-16T09:14:02.677Z,290.88
2019-04-16T09:15:02.667Z,284.60
2019-04-16T09:16:02.656Z,67.63
2019-04-16T09:17:02.680Z,199.56
2019-04-16T09:18:02.676Z,284.24
2019-04-16T09:19:02.684Z,282.12
2019-04-16T09:20:05.148Z,287.88
2019-04-16T09:21:02.662Z,279.28
2019-04-16T09:22:02.666Z,299.48
2019-04-16T09:23:02.692Z,327.41
2019-04-16T09:24:08.567Z,297.18
2019-04-16T09:25:02.682Z,308.94
2019-04-16T09:26:13.616Z,296.31
2019-04-16T09:27:02.658Z,308.87
2019-04-16T09:28:02.690Z,300.11
2019-04-16T09:29:08.515Z,292.35
2019-04-16T09:30:02.683Z,287.08
2019-04-16T09:31:02.719Z,317.00
2019-04-16T09:32:02.696Z,333.15
2019-04-16T09:33:02.673Z,299.18
2019-04-16T09:34:05.754Z,294.85
2019-04-16T09:35:10.084Z,290.86
2019-04-16T09:36:02.676Z,312.17
2019-04-16T09:37:02.701Z,224.82
2019-04-16T09:38:02.697Z,290.84
2019-04-16T09:39:02.663Z,276.26
2019-04-16T09:40:15.592Z,271.53
2019-04-16T09:41:02.746Z,279.72
2019-04-16T09:42:02.773Z,278.68
2019-04-16T09:43:15.803Z,276.09
2019-04-16T09:44:02.738Z,282.34
2019-04-16T09:45:05.060Z,297.37
2019-04-16T09:46:10.381Z,33.48
2019-04-16T09:47:05.210Z,340.45
2019-04-16T09:48:03.773Z,92.90
2019-04-16T09:49:04.733Z,73.84
2019-04-16T09:50:02.687Z,295.84
2019-04-16T09:51:02.687Z,318.67
2019-04-16T09:52:03.950Z,148.54
2019-04-16T09:53:03.090Z,75.84
2019-04-16T09:54:02.695Z,142.64
2019-04-16T09:55:02.711Z,202.75
2019-04-16T09:56:02.741Z,154.79
2019-04-16T09:57:02.721Z,249.21
2019-04-16T09:58:06.066Z,240.49
2019-04-16T09:59:02.772Z,90.10
2019-04-16T10:00:02.689Z,83.89
2019-04-16T10:01:02.692Z,271.36
2019-04-16T10:02:02.746Z,298.52
2019-04-16T10:03:02.695Z,311.11
2019-04-16T10:04:02.719Z,119.08
2019-04-16T10:05:02.716Z,286.97
2019-04-16T10:06:05.279Z,124.10
2019-04-16T10:07:02.737Z,298.46
2019-04-16T10:08:02.761Z,65.59
2019-04-16T10:09:02.702Z,116.49
2019-04-16T10:10:02.728Z,139.23
2019-04-16T10:11:05.770Z,90.95
2019-04-16T10:12:05.036Z,243.64
2019-04-16T10:13:02.737Z,282.45
2019-04-16T10:14:02.741Z,108.68
2019-04-16T10:15:02.756Z,254.11
2019-04-16T10:16:02.756Z,303.84
2019-04-16T10:17:02.775Z,276.80
2019-04-16T10:18:02.715Z,315.54
2019-04-16T10:19:07.897Z,312.70
2019-04-16T10:20:02.758Z,217.46
2019-04-16T10:21:02.732Z,343.50
2019-04-16T10:22:02.734Z,105.36
2019-04-16T10:23:02.781Z,93.75
2019-04-16T10:24:02.731Z,98.36
2019-04-16T10:25:02.749Z,95.88
2019-04-16T10:26:02.773Z,132.03
2019-04-16T10:27:04.361Z,161.99
2019-04-16T10:28:04.960Z,302.27
2019-04-16T10:29:05.817Z,276.06
2019-04-16T10:30:02.727Z,187.45
2019-04-16T10:31:02.739Z,153.48
2019-04-16T10:32:02.788Z,319.61
2019-04-16T10:33:02.718Z,302.37
2019-04-16T10:34:02.786Z,291.25
2019-04-16T10:35:02.755Z,228.49
2019-04-16T10:36:04.807Z,282.09
2019-04-16T10:37:02.750Z,197.20
2019-04-16T10:38:02.772Z,98.33
2019-04-16T10:39:02.766Z,112.76
2019-04-16T10:40:04.893Z,107.40
2019-04-16T10:41:02.804Z,100.61
2019-04-16T10:42:02.725Z,165.85
2019-04-16T10:43:02.769Z,163.48
2019-04-16T10:44:02.747Z,248.23
2019-04-16T10:45:02.770Z,111.81
2019-04-16T10:46:02.818Z,108.27
2019-04-16T10:47:02.770Z,94.89
2019-04-16T10:48:02.756Z,94.34
2019-04-16T10:49:02.715Z,92.76
2019-04-16T10:50:02.787Z,93.64
2019-04-16T10:51:02.732Z,103.39
2019-04-16T10:52:02.787Z,102.80
2019-04-16T10:53:02.813Z,109.36
2019-04-16T10:54:02.737Z,112.36
2019-04-16T10:55:02.795Z,125.89
2019-04-16T10:56:02.798Z,242.76
2019-04-16T10:57:02.783Z,264.97
2019-04-16T10:58:02.775Z,91.56
2019-04-16T10:59:02.820Z,94.49
2019-04-16T11:00:02.749Z,100.63
2019-04-16T11:01:02.775Z,195.95
2019-04-16T11:02:02.869Z,155.95
2019-04-16T11:03:02.760Z,123.51
2019-04-16T11:04:04.833Z,117.91
2019-04-16T11:05:03.236Z,116.60
2019-04-16T11:06:02.767Z,108.39
2019-04-16T11:07:02.798Z,104.02
2019-04-16T11:08:04.345Z,90.15
2019-04-16T11:09:02.770Z,94.36
2019-04-16T11:10:02.803Z,93.00
2019-04-16T11:11:02.876Z,113.15
2019-04-16T11:12:05.405Z,114.98
2019-04-16T11:13:02.785Z,13.48
2019-04-16T11:14:02.811Z,206.88
2019-04-16T11:15:02.780Z,280.54
2019-04-16T11:16:02.791Z,346.36
2019-04-16T11:17:02.827Z,14.32
2019-04-16T11:18:02.788Z,96.84
2019-04-16T11:19:02.963Z,94.45
2019-04-16T11:20:03.179Z,75.94
2019-04-16T11:21:02.960Z,50.71
2019-04-16T11:22:03.914Z,127.73
2019-04-16T11:23:03.289Z,121.37
2019-04-16T11:24:03.087Z,100.72
2019-04-16T11:25:03.087Z,113.63
2019-04-16T11:26:02.775Z,91.30
2019-04-16T11:27:02.782Z,92.54
2019-04-16T11:28:02.814Z,111.75
2019-04-16T11:29:02.880Z,100.15
2019-04-16T11:30:02.899Z,61.12
2019-04-16T11:31:03.062Z,94.50
2019-04-16T11:32:03.031Z,104.72
2019-04-16T11:33:03.116Z,132.08
2019-04-16T11:34:03.001Z,117.76
2019-04-16T11:35:03.040Z,118.61
2019-04-16T11:36:17.415Z,122.64
2019-04-16T11:37:07.412Z,99.12
2019-04-16T11:38:03.010Z,121.56
2019-04-16T11:39:02.835Z,142.82
2019-04-16T11:40:03.188Z,246.70
2019-04-16T11:41:02.810Z,290.13
2019-04-16T11:42:02.793Z,296.87
2019-04-16T11:43:03.154Z,90.03
2019-04-16T11:44:14.264Z,152.31
2019-04-16T11:45:02.810Z,95.45
2019-04-16T11:46:03.055Z,128.96
2019-04-16T11:47:02.872Z,66.38
2019-04-16T11:48:03.013Z,339.72
2019-04-16T11:49:03.278Z,202.47
2019-04-16T11:50:02.838Z,275.60
2019-04-16T11:51:02.815Z,289.17
2019-04-16T11:52:02.927Z,292.92
2019-04-16T11:53:03.102Z,296.56
2019-04-16T11:54:03.091Z,194.59
2019-04-16T11:55:02.895Z,234.36
2019-04-16T11:56:02.902Z,109.55
2019-04-16T11:57:03.000Z,207.80
2019-04-16T11:58:02.837Z,44.58
2019-04-16T11:59:02.857Z,273.19
2019-04-16T12:00:07.714Z,356.93
2019-04-16T12:01:02.848Z,310.85
2019-04-16T12:02:02.927Z,284.28
2019-04-16T12:03:02.843Z,251.45
2019-04-16T12:04:02.872Z,283.88
2019-04-16T12:05:02.851Z,279.29
2019-04-16T12:06:02.830Z,249.84
2019-04-16T12:07:05.624Z,235.31
2019-04-16T12:08:02.871Z,209.30
2019-04-16T12:09:02.874Z,279.08
2019-04-16T12:10:02.857Z,90.03
2019-04-16T12:11:02.870Z,46.11
2019-04-16T12:12:02.845Z,299.00
2019-04-16T12:13:03.965Z,81.61
2019-04-16T12:14:04.224Z,95.85
2019-04-16T12:15:02.831Z,101.92
2019-04-16T12:16:02.868Z,107.23
2019-04-16T12:17:02.855Z,137.50
2019-04-16T12:18:02.833Z,347.37
2019-04-16T12:19:02.878Z,93.58
2019-04-16T12:20:02.946Z,94.57
2019-04-16T12:21:02.879Z,120.87
2019-04-16T12:22:02.885Z,96.74
2019-04-16T12:23:02.890Z,116.34
2019-04-16T12:24:02.890Z,122.01
2019-04-16T12:25:02.839Z,90.05
2019-04-16T12:26:02.853Z,254.90
2019-04-16T12:27:03.102Z,202.60
2019-04-16T12:28:06.525Z,284.28
2019-04-16T12:29:02.895Z,242.78
2019-04-16T12:30:02.881Z,32.40
2019-04-16T12:31:02.844Z,213.31
2019-04-16T12:32:04.338Z,98.63